sensor_id;sensor_type;location;lat;lon;timestamp;P1;durP1;ratioP1;P2;durP2;ratioP2
21837;SDS011;11081;45.946;6.140;2022-09-06T00:00:14;12.02;;;3.08;;
21837;SDS011;11081;45.946;6.140;2022-09-06T00:02:44;11.85;;;3.17;;
21837;SDS011;11081;45.946;6.140;2022-09-06T00:05:12;12.32;;;2.80;;
21837;SDS011;11081;45.946;6.140;2022-09-06T00:07:42;11.07;;;2.90;;
21837;SDS011;11081;45.946;6.140;2022-09-06T00:10:10;13.30;;;3.08;;
21837;SDS011;11081;45.946;6.140;2022-09-06T00:12:38;12.52;;;2.95;;
21837;SDS011;11081;45.946;6.140;2022-09-06T00:15:07;13.18;;;3.67;;
21837;SDS011;11081;45.946;6.140;2022-09-06T00:17:36;12.05;;;2.83;;
21837;SDS011;11081;45.946;6.140;2022-09-06T00:20:04;11.77;;;3.30;;
21837;SDS011;11081;45.946;6.140;2022-09-06T00:22:34;11.20;;;3.13;;
21837;SDS011;11081;45.946;6.140;2022-09-06T00:25:04;8.85;;;2.85;;
21837;SDS011;11081;45.946;6.140;2022-09-06T00:27:33;8.70;;;2.55;;
21837;SDS011;11081;45.946;6.140;2022-09-06T00:30:02;10.85;;;3.25;;
21837;SDS011;11081;45.946;6.140;2022-09-06T00:32:31;14.05;;;3.92;;
21837;SDS011;11081;45.946;6.140;2022-09-06T00:34:59;11.50;;;3.05;;
21837;SDS011;11081;45.946;6.140;2022-09-06T00:37:27;10.15;;;3.20;;
21837;SDS011;11081;45.946;6.140;2022-09-06T00:39:55;10.50;;;2.90;;
21837;SDS011;11081;45.946;6.140;2022-09-06T00:42:25;15.48;;;3.10;;
21837;SDS011;11081;45.946;6.140;2022-09-06T00:44:53;10.00;;;3.13;;
21837;SDS011;11081;45.946;6.140;2022-09-06T00:47:21;7.35;;;3.03;;
21837;SDS011;11081;45.946;6.140;2022-09-06T00:49:49;10.65;;;2.78;;
21837;SDS011;11081;45.946;6.140;2022-09-06T00:52:20;12.13;;;2.90;;
21837;SDS011;11081;45.946;6.140;2022-09-06T00:54:49;6.97;;;2.70;;
21837;SDS011;11081;45.946;6.140;2022-09-06T00:57:18;14.35;;;2.85;;
21837;SDS011;11081;45.946;6.140;2022-09-06T00:59:47;11.60;;;2.63;;
21837;SDS011;11081;45.946;6.140;2022-09-06T01:02:17;14.75;;;3.50;;
21837;SDS011;11081;45.946;6.140;2022-09-06T01:04:45;12.15;;;3.20;;
21837;SDS011;11081;45.946;6.140;2022-09-06T01:07:17;13.60;;;3.63;;
21837;SDS011;11081;45.946;6.140;2022-09-06T01:09:58;9.85;;;2.42;;
21837;SDS011;11081;45.946;6.140;2022-09-06T01:12:40;11.15;;;3.05;;
21837;SDS011;11081;45.946;6.140;2022-09-06T01:15:21;12.43;;;2.78;;
21837;SDS011;11081;45.946;6.140;2022-09-06T01:18:00;11.15;;;3.15;;
21837;SDS011;11081;45.946;6.140;2022-09-06T01:27:10;12.02;;;3.33;;
21837;SDS011;11081;45.946;6.140;2022-09-06T01:30:05;12.50;;;2.92;;
21837;SDS011;11081;45.946;6.140;2022-09-06T01:32:38;12.35;;;3.05;;
21837;SDS011;11081;45.946;6.140;2022-09-06T01:35:14;12.63;;;3.25;;
21837;SDS011;11081;45.946;6.140;2022-09-06T01:37:48;10.88;;;2.95;;
21837;SDS011;11081;45.946;6.140;2022-09-06T01:40:16;20.85;;;3.28;;
21837;SDS011;11081;45.946;6.140;2022-09-06T01:42:45;13.38;;;3.20;;
21837;SDS011;11081;45.946;6.140;2022-09-06T01:45:18;16.33;;;3.50;;
21837;SDS011;11081;45.946;6.140;2022-09-06T01:47:58;10.05;;;3.10;;
21837;SDS011;11081;45.946;6.140;2022-09-06T01:50:41;11.10;;;3.28;;
21837;SDS011;11081;45.946;6.140;2022-09-06T01:53:20;12.25;;;3.15;;
21837;SDS011;11081;45.946;6.140;2022-09-06T01:56:01;13.27;;;3.55;;
21837;SDS011;11081;45.946;6.140;2022-09-06T01:58:43;15.35;;;3.20;;
21837;SDS011;11081;45.946;6.140;2022-09-06T02:01:24;14.98;;;3.88;;
21837;SDS011;11081;45.946;6.140;2022-09-06T02:03:58;9.63;;;3.40;;
21837;SDS011;11081;45.946;6.140;2022-09-06T02:06:30;10.20;;;2.97;;
21837;SDS011;11081;45.946;6.140;2022-09-06T02:09:03;13.50;;;3.25;;
21837;SDS011;11081;45.946;6.140;2022-09-06T02:11:36;11.48;;;3.47;;
21837;SDS011;11081;45.946;6.140;2022-09-06T02:14:08;12.60;;;2.92;;
21837;SDS011;11081;45.946;6.140;2022-09-06T02:16:41;10.57;;;2.75;;
21837;SDS011;11081;45.946;6.140;2022-09-06T02:19:13;15.07;;;3.35;;
21837;SDS011;11081;45.946;6.140;2022-09-06T02:21:44;14.40;;;3.33;;
21837;SDS011;11081;45.946;6.140;2022-09-06T02:24:15;9.77;;;3.08;;
21837;SDS011;11081;45.946;6.140;2022-09-06T02:26:46;13.77;;;2.90;;
21837;SDS011;11081;45.946;6.140;2022-09-06T02:29:14;8.90;;;2.60;;
21837;SDS011;11081;45.946;6.140;2022-09-06T02:31:46;11.93;;;2.83;;
21837;SDS011;11081;45.946;6.140;2022-09-06T02:34:17;13.30;;;3.17;;
21837;SDS011;11081;45.946;6.140;2022-09-06T02:36:46;15.10;;;3.40;;
21837;SDS011;11081;45.946;6.140;2022-09-06T02:39:15;18.95;;;3.50;;
21837;SDS011;11081;45.946;6.140;2022-09-06T02:41:43;10.73;;;2.95;;
21837;SDS011;11081;45.946;6.140;2022-09-06T02:44:13;12.43;;;3.25;;
21837;SDS011;11081;45.946;6.140;2022-09-06T02:46:41;17.95;;;3.10;;
21837;SDS011;11081;45.946;6.140;2022-09-06T02:49:10;15.48;;;3.38;;
21837;SDS011;11081;45.946;6.140;2022-09-06T02:51:39;14.07;;;2.90;;
21837;SDS011;11081;45.946;6.140;2022-09-06T02:54:07;11.48;;;2.65;;
21837;SDS011;11081;45.946;6.140;2022-09-06T02:56:35;8.40;;;2.72;;
21837;SDS011;11081;45.946;6.140;2022-09-06T02:59:03;19.50;;;3.15;;
21837;SDS011;11081;45.946;6.140;2022-09-06T03:01:32;13.20;;;2.72;;
21837;SDS011;11081;45.946;6.140;2022-09-06T03:04:00;10.80;;;3.05;;
21837;SDS011;11081;45.946;6.140;2022-09-06T03:06:30;8.63;;;2.85;;
21837;SDS011;11081;45.946;6.140;2022-09-06T03:08:59;11.13;;;2.72;;
21837;SDS011;11081;45.946;6.140;2022-09-06T03:11:27;18.83;;;3.60;;
21837;SDS011;11081;45.946;6.140;2022-09-06T03:13:55;8.43;;;3.00;;
21837;SDS011;11081;45.946;6.140;2022-09-06T03:16:23;11.55;;;2.92;;
21837;SDS011;11081;45.946;6.140;2022-09-06T03:18:51;11.85;;;2.92;;
21837;SDS011;11081;45.946;6.140;2022-09-06T03:21:19;15.85;;;3.33;;
21837;SDS011;11081;45.946;6.140;2022-09-06T03:23:48;8.50;;;2.63;;
21837;SDS011;11081;45.946;6.140;2022-09-06T03:26:16;14.45;;;2.95;;
21837;SDS011;11081;45.946;6.140;2022-09-06T03:28:44;11.10;;;2.88;;
21837;SDS011;11081;45.946;6.140;2022-09-06T03:31:13;11.27;;;3.08;;
21837;SDS011;11081;45.946;6.140;2022-09-06T03:33:41;11.57;;;3.33;;
21837;SDS011;11081;45.946;6.140;2022-09-06T03:36:09;10.82;;;3.40;;
21837;SDS011;11081;45.946;6.140;2022-09-06T03:38:37;11.25;;;3.60;;
21837;SDS011;11081;45.946;6.140;2022-09-06T03:41:06;14.35;;;3.25;;
21837;SDS011;11081;45.946;6.140;2022-09-06T03:43:34;12.15;;;2.70;;
21837;SDS011;11081;45.946;6.140;2022-09-06T03:46:03;14.38;;;3.03;;
21837;SDS011;11081;45.946;6.140;2022-09-06T03:48:31;15.10;;;3.08;;
21837;SDS011;11081;45.946;6.140;2022-09-06T03:50:59;15.50;;;3.47;;
21837;SDS011;11081;45.946;6.140;2022-09-06T03:53:27;13.75;;;3.22;;
21837;SDS011;11081;45.946;6.140;2022-09-06T03:55:56;12.25;;;2.80;;
21837;SDS011;11081;45.946;6.140;2022-09-06T03:58:29;11.52;;;3.28;;
21837;SDS011;11081;45.946;6.140;2022-09-06T04:00:58;18.25;;;3.70;;
21837;SDS011;11081;45.946;6.140;2022-09-06T04:03:28;13.05;;;3.75;;
21837;SDS011;11081;45.946;6.140;2022-09-06T04:05:56;11.60;;;3.00;;
21837;SDS011;11081;45.946;6.140;2022-09-06T04:08:24;15.52;;;3.42;;
21837;SDS011;11081;45.946;6.140;2022-09-06T04:10:53;12.05;;;2.92;;
21837;SDS011;11081;45.946;6.140;2022-09-06T04:13:21;16.02;;;3.30;;
21837;SDS011;11081;45.946;6.140;2022-09-06T04:15:52;10.57;;;2.88;;
21837;SDS011;11081;45.946;6.140;2022-09-06T04:18:20;17.80;;;3.33;;
21837;SDS011;11081;45.946;6.140;2022-09-06T04:20:49;16.55;;;3.38;;
21837;SDS011;11081;45.946;6.140;2022-09-06T04:23:18;15.35;;;3.15;;
21837;SDS011;11081;45.946;6.140;2022-09-06T04:25:47;10.88;;;2.95;;
21837;SDS011;11081;45.946;6.140;2022-09-06T04:28:16;14.98;;;2.97;;
21837;SDS011;11081;45.946;6.140;2022-09-06T04:30:45;10.48;;;2.83;;
21837;SDS011;11081;45.946;6.140;2022-09-06T04:33:20;13.48;;;2.90;;
21837;SDS011;11081;45.946;6.140;2022-09-06T04:35:51;14.35;;;2.92;;
21837;SDS011;11081;45.946;6.140;2022-09-06T04:38:20;12.27;;;3.28;;
21837;SDS011;11081;45.946;6.140;2022-09-06T04:40:48;13.05;;;3.40;;
21837;SDS011;11081;45.946;6.140;2022-09-06T04:43:16;9.48;;;2.80;;
21837;SDS011;11081;45.946;6.140;2022-09-06T04:45:44;17.63;;;2.83;;
21837;SDS011;11081;45.946;6.140;2022-09-06T04:48:14;8.50;;;2.33;;
21837;SDS011;11081;45.946;6.140;2022-09-06T04:50:42;16.60;;;3.35;;
21837;SDS011;11081;45.946;6.140;2022-09-06T04:53:10;12.00;;;3.38;;
21837;SDS011;11081;45.946;6.140;2022-09-06T04:55:38;10.05;;;3.22;;
21837;SDS011;11081;45.946;6.140;2022-09-06T04:58:06;13.32;;;3.22;;
21837;SDS011;11081;45.946;6.140;2022-09-06T05:00:35;10.48;;;3.00;;
21837;SDS011;11081;45.946;6.140;2022-09-06T05:03:04;9.80;;;3.00;;
21837;SDS011;11081;45.946;6.140;2022-09-06T05:05:33;13.18;;;3.45;;
21837;SDS011;11081;45.946;6.140;2022-09-06T05:08:02;12.88;;;3.00;;
21837;SDS011;11081;45.946;6.140;2022-09-06T05:10:30;12.68;;;3.05;;
21837;SDS011;11081;45.946;6.140;2022-09-06T05:12:58;9.98;;;2.88;;
21837;SDS011;11081;45.946;6.140;2022-09-06T05:15:26;10.88;;;3.17;;
21837;SDS011;11081;45.946;6.140;2022-09-06T05:18:00;13.60;;;3.00;;
21837;SDS011;11081;45.946;6.140;2022-09-06T05:20:29;10.63;;;2.72;;
21837;SDS011;11081;45.946;6.140;2022-09-06T05:22:59;10.88;;;3.22;;
21837;SDS011;11081;45.946;6.140;2022-09-06T05:25:27;17.15;;;3.25;;
21837;SDS011;11081;45.946;6.140;2022-09-06T05:27:56;12.60;;;3.03;;
21837;SDS011;11081;45.946;6.140;2022-09-06T05:30:24;9.40;;;3.25;;
21837;SDS011;11081;45.946;6.140;2022-09-06T05:32:52;12.80;;;3.50;;
21837;SDS011;11081;45.946;6.140;2022-09-06T05:35:20;14.57;;;3.72;;
21837;SDS011;11081;45.946;6.140;2022-09-06T05:37:48;15.80;;;3.28;;
21837;SDS011;11081;45.946;6.140;2022-09-06T05:40:18;13.57;;;3.47;;
21837;SDS011;11081;45.946;6.140;2022-09-06T05:42:46;13.45;;;2.85;;
21837;SDS011;11081;45.946;6.140;2022-09-06T05:45:14;12.73;;;3.65;;
21837;SDS011;11081;45.946;6.140;2022-09-06T05:47:42;10.65;;;3.25;;
21837;SDS011;11081;45.946;6.140;2022-09-06T05:50:10;11.90;;;3.10;;
21837;SDS011;11081;45.946;6.140;2022-09-06T05:52:38;12.90;;;3.72;;
21837;SDS011;11081;45.946;6.140;2022-09-06T05:55:07;11.80;;;3.63;;
21837;SDS011;11081;45.946;6.140;2022-09-06T05:57:37;18.58;;;3.60;;
21837;SDS011;11081;45.946;6.140;2022-09-06T06:00:05;12.63;;;3.40;;
21837;SDS011;11081;45.946;6.140;2022-09-06T06:02:37;11.77;;;3.28;;
21837;SDS011;11081;45.946;6.140;2022-09-06T06:05:06;18.25;;;3.53;;
21837;SDS011;11081;45.946;6.140;2022-09-06T06:07:35;15.00;;;3.53;;
21837;SDS011;11081;45.946;6.140;2022-09-06T06:10:03;12.02;;;3.10;;
21837;SDS011;11081;45.946;6.140;2022-09-06T06:12:32;13.02;;;3.63;;
21837;SDS011;11081;45.946;6.140;2022-09-06T06:15:01;16.95;;;3.50;;
21837;SDS011;11081;45.946;6.140;2022-09-06T06:17:31;17.65;;;3.40;;
21837;SDS011;11081;45.946;6.140;2022-09-06T06:19:59;16.90;;;3.22;;
21837;SDS011;11081;45.946;6.140;2022-09-06T06:22:27;14.55;;;3.47;;
21837;SDS011;11081;45.946;6.140;2022-09-06T06:24:55;12.20;;;2.85;;
21837;SDS011;11081;45.946;6.140;2022-09-06T06:27:23;14.35;;;2.78;;
21837;SDS011;11081;45.946;6.140;2022-09-06T06:29:51;12.75;;;3.42;;
21837;SDS011;11081;45.946;6.140;2022-09-06T06:32:21;10.85;;;3.25;;
21837;SDS011;11081;45.946;6.140;2022-09-06T06:34:49;15.25;;;4.07;;
21837;SDS011;11081;45.946;6.140;2022-09-06T06:37:17;19.55;;;3.97;;
21837;SDS011;11081;45.946;6.140;2022-09-06T06:39:45;21.52;;;4.45;;
21837;SDS011;11081;45.946;6.140;2022-09-06T06:42:13;19.92;;;4.13;;
21837;SDS011;11081;45.946;6.140;2022-09-06T06:44:49;21.05;;;4.30;;
21837;SDS011;11081;45.946;6.140;2022-09-06T06:47:18;18.48;;;4.80;;
21837;SDS011;11081;45.946;6.140;2022-09-06T06:49:48;17.10;;;4.10;;
21837;SDS011;11081;45.946;6.140;2022-09-06T06:52:16;15.25;;;4.25;;
21837;SDS011;11081;45.946;6.140;2022-09-06T06:54:46;11.73;;;3.92;;
21837;SDS011;11081;45.946;6.140;2022-09-06T06:57:15;10.85;;;3.80;;
21837;SDS011;11081;45.946;6.140;2022-09-06T06:59:43;15.80;;;3.90;;
21837;SDS011;11081;45.946;6.140;2022-09-06T07:02:11;18.27;;;3.72;;
21837;SDS011;11081;45.946;6.140;2022-09-06T07:04:42;12.10;;;3.65;;
21837;SDS011;11081;45.946;6.140;2022-09-06T07:07:10;16.15;;;4.47;;
21837;SDS011;11081;45.946;6.140;2022-09-06T07:09:58;13.50;;;4.10;;
21837;SDS011;11081;45.946;6.140;2022-09-06T07:12:46;16.75;;;4.07;;
21837;SDS011;11081;45.946;6.140;2022-09-06T07:15:14;15.18;;;4.28;;
21837;SDS011;11081;45.946;6.140;2022-09-06T07:17:42;13.55;;;3.72;;
21837;SDS011;11081;45.946;6.140;2022-09-06T07:20:12;19.13;;;5.05;;
21837;SDS011;11081;45.946;6.140;2022-09-06T07:22:41;19.77;;;5.07;;
21837;SDS011;11081;45.946;6.140;2022-09-06T07:25:09;15.35;;;4.43;;
21837;SDS011;11081;45.946;6.140;2022-09-06T07:27:45;17.40;;;4.00;;
21837;SDS011;11081;45.946;6.140;2022-09-06T07:30:15;17.85;;;4.60;;
21837;SDS011;11081;45.946;6.140;2022-09-06T07:32:45;13.40;;;3.75;;
21837;SDS011;11081;45.946;6.140;2022-09-06T07:35:14;18.20;;;4.63;;
21837;SDS011;11081;45.946;6.140;2022-09-06T07:37:42;13.50;;;4.25;;
21837;SDS011;11081;45.946;6.140;2022-09-06T07:40:18;21.33;;;4.53;;
21837;SDS011;11081;45.946;6.140;2022-09-06T07:42:46;25.77;;;5.25;;
21837;SDS011;11081;45.946;6.140;2022-09-06T07:45:14;15.43;;;4.65;;
21837;SDS011;11081;45.946;6.140;2022-09-06T07:47:43;15.80;;;4.40;;
21837;SDS011;11081;45.946;6.140;2022-09-06T07:50:27;12.45;;;3.50;;
21837;SDS011;11081;45.946;6.140;2022-09-06T07:53:14;17.67;;;4.63;;
21837;SDS011;11081;45.946;6.140;2022-09-06T07:55:54;16.35;;;3.90;;
21837;SDS011;11081;45.946;6.140;2022-09-06T07:58:22;14.77;;;3.60;;
21837;SDS011;11081;45.946;6.140;2022-09-06T08:00:50;14.05;;;4.07;;
21837;SDS011;11081;45.946;6.140;2022-09-06T08:03:18;14.00;;;3.17;;
21837;SDS011;11081;45.946;6.140;2022-09-06T08:05:51;17.83;;;3.67;;
21837;SDS011;11081;45.946;6.140;2022-09-06T08:08:35;10.57;;;3.63;;
21837;SDS011;11081;45.946;6.140;2022-09-06T08:11:24;12.27;;;2.92;;
21837;SDS011;11081;45.946;6.140;2022-09-06T08:13:54;13.80;;;3.65;;
21837;SDS011;11081;45.946;6.140;2022-09-06T08:16:24;11.98;;;3.83;;
21837;SDS011;11081;45.946;6.140;2022-09-06T08:18:54;15.00;;;4.10;;
21837;SDS011;11081;45.946;6.140;2022-09-06T08:21:26;13.40;;;3.92;;
21837;SDS011;11081;45.946;6.140;2022-09-06T08:23:56;20.25;;;4.57;;
21837;SDS011;11081;45.946;6.140;2022-09-06T08:26:26;17.13;;;4.53;;
21837;SDS011;11081;45.946;6.140;2022-09-06T08:28:56;14.45;;;3.75;;
21837;SDS011;11081;45.946;6.140;2022-09-06T08:31:25;19.98;;;4.18;;
21837;SDS011;11081;45.946;6.140;2022-09-06T08:33:55;12.15;;;3.58;;
21837;SDS011;11081;45.946;6.140;2022-09-06T08:36:25;15.15;;;4.22;;
21837;SDS011;11081;45.946;6.140;2022-09-06T08:38:55;23.48;;;4.50;;
21837;SDS011;11081;45.946;6.140;2022-09-06T08:41:23;10.75;;;3.10;;
21837;SDS011;11081;45.946;6.140;2022-09-06T08:43:53;16.15;;;4.05;;
21837;SDS011;11081;45.946;6.140;2022-09-06T08:46:48;20.23;;;4.20;;
21837;SDS011;11081;45.946;6.140;2022-09-06T08:49:21;13.52;;;3.88;;
21837;SDS011;11081;45.946;6.140;2022-09-06T08:51:57;12.18;;;3.35;;
21837;SDS011;11081;45.946;6.140;2022-09-06T08:54:40;9.50;;;3.47;;
21837;SDS011;11081;45.946;6.140;2022-09-06T08:57:17;16.70;;;3.75;;
21837;SDS011;11081;45.946;6.140;2022-09-06T09:00:06;12.57;;;3.58;;
21837;SDS011;11081;45.946;6.140;2022-09-06T09:02:40;13.63;;;3.72;;
21837;SDS011;11081;45.946;6.140;2022-09-06T09:05:21;15.50;;;3.88;;
21837;SDS011;11081;45.946;6.140;2022-09-06T09:07:56;12.95;;;3.85;;
21837;SDS011;11081;45.946;6.140;2022-09-06T09:10:35;11.95;;;3.38;;
21837;SDS011;11081;45.946;6.140;2022-09-06T09:13:08;11.65;;;3.53;;
21837;SDS011;11081;45.946;6.140;2022-09-06T09:15:45;11.52;;;3.35;;
21837;SDS011;11081;45.946;6.140;2022-09-06T09:18:14;15.80;;;3.70;;
21837;SDS011;11081;45.946;6.140;2022-09-06T09:20:47;12.68;;;3.78;;
21837;SDS011;11081;45.946;6.140;2022-09-06T09:23:16;12.85;;;2.85;;
21837;SDS011;11081;45.946;6.140;2022-09-06T09:25:44;12.15;;;3.25;;
21837;SDS011;11081;45.946;6.140;2022-09-06T09:28:15;12.23;;;3.22;;
21837;SDS011;11081;45.946;6.140;2022-09-06T09:30:47;12.65;;;4.05;;
21837;SDS011;11081;45.946;6.140;2022-09-06T09:33:19;14.88;;;3.60;;
21837;SDS011;11081;45.946;6.140;2022-09-06T09:35:49;16.52;;;3.80;;
21837;SDS011;11081;45.946;6.140;2022-09-06T09:38:20;12.70;;;3.72;;
21837;SDS011;11081;45.946;6.140;2022-09-06T09:40:51;16.63;;;3.45;;
21837;SDS011;11081;45.946;6.140;2022-09-06T09:43:21;19.58;;;3.10;;
21837;SDS011;11081;45.946;6.140;2022-09-06T09:48:44;13.30;;;3.00;;
21837;SDS011;11081;45.946;6.140;2022-09-06T09:51:26;11.13;;;2.92;;
21837;SDS011;11081;45.946;6.140;2022-09-06T09:53:57;16.00;;;3.30;;
21837;SDS011;11081;45.946;6.140;2022-09-06T09:56:35;14.40;;;3.00;;
21837;SDS011;11081;45.946;6.140;2022-09-06T09:59:07;11.60;;;2.92;;
21837;SDS011;11081;45.946;6.140;2022-09-06T10:01:47;17.25;;;3.17;;
21837;SDS011;11081;45.946;6.140;2022-09-06T10:04:16;12.32;;;2.92;;
21837;SDS011;11081;45.946;6.140;2022-09-06T10:07:09;13.85;;;3.00;;
21837;SDS011;11081;45.946;6.140;2022-09-06T10:09:41;14.48;;;3.28;;
21837;SDS011;11081;45.946;6.140;2022-09-06T10:12:15;14.25;;;2.92;;
21837;SDS011;11081;45.946;6.140;2022-09-06T10:14:46;16.00;;;3.33;;
21837;SDS011;11081;45.946;6.140;2022-09-06T10:17:19;20.92;;;2.90;;
21837;SDS011;11081;45.946;6.140;2022-09-06T10:19:54;12.18;;;2.35;;
21837;SDS011;11081;45.946;6.140;2022-09-06T10:22:26;11.90;;;2.20;;
21837;SDS011;11081;45.946;6.140;2022-09-06T10:34:06;6.55;;;1.50;;
21837;SDS011;11081;45.946;6.140;2022-09-06T10:36:59;13.82;;;1.88;;
21837;SDS011;11081;45.946;6.140;2022-09-06T10:39:37;8.50;;;1.83;;
21837;SDS011;11081;45.946;6.140;2022-09-06T10:42:19;9.80;;;1.88;;
21837;SDS011;11081;45.946;6.140;2022-09-06T10:45:02;12.55;;;2.08;;
21837;SDS011;11081;45.946;6.140;2022-09-06T10:47:53;5.70;;;1.70;;
21837;SDS011;11081;45.946;6.140;2022-09-06T10:50:24;8.32;;;1.70;;
21837;SDS011;11081;45.946;6.140;2022-09-06T10:53:02;5.05;;;1.27;;
21837;SDS011;11081;45.946;6.140;2022-09-06T10:55:36;5.07;;;1.42;;
21837;SDS011;11081;45.946;6.140;2022-09-06T10:58:08;4.25;;;0.90;;
21837;SDS011;11081;45.946;6.140;2022-09-06T11:00:41;7.20;;;1.60;;
21837;SDS011;11081;45.946;6.140;2022-09-06T11:03:17;10.55;;;2.05;;
21837;SDS011;11081;45.946;6.140;2022-09-06T11:06:13;7.03;;;1.23;;
21837;SDS011;11081;45.946;6.140;2022-09-06T11:08:45;6.32;;;1.30;;
21837;SDS011;11081;45.946;6.140;2022-09-06T11:11:25;8.65;;;1.30;;
21837;SDS011;11081;45.946;6.140;2022-09-06T11:14:03;10.60;;;1.80;;
21837;SDS011;11081;45.946;6.140;2022-09-06T11:16:36;9.25;;;1.70;;
21837;SDS011;11081;45.946;6.140;2022-09-06T11:19:10;4.18;;;1.38;;
21837;SDS011;11081;45.946;6.140;2022-09-06T11:21:49;10.05;;;2.50;;
21837;SDS011;11081;45.946;6.140;2022-09-06T11:25:12;8.65;;;2.17;;
21837;SDS011;11081;45.946;6.140;2022-09-06T11:27:59;7.95;;;1.70;;
21837;SDS011;11081;45.946;6.140;2022-09-06T11:30:31;8.23;;;1.70;;
21837;SDS011;11081;45.946;6.140;2022-09-06T11:33:04;9.10;;;2.08;;
21837;SDS011;11081;45.946;6.140;2022-09-06T11:35:36;8.82;;;1.77;;
21837;SDS011;11081;45.946;6.140;2022-09-06T11:38:14;8.50;;;1.83;;
21837;SDS011;11081;45.946;6.140;2022-09-06T11:40:55;8.63;;;1.73;;
21837;SDS011;11081;45.946;6.140;2022-09-06T11:43:42;7.82;;;1.67;;
21837;SDS011;11081;45.946;6.140;2022-09-06T11:49:28;3.97;;;1.70;;
21837;SDS011;11081;45.946;6.140;2022-09-06T11:51:57;8.50;;;1.75;;
21837;SDS011;11081;45.946;6.140;2022-09-06T11:54:36;8.82;;;2.03;;
21837;SDS011;11081;45.946;6.140;2022-09-06T11:57:12;9.25;;;2.28;;
21837;SDS011;11081;45.946;6.140;2022-09-06T11:59:48;7.95;;;2.40;;
21837;SDS011;11081;45.946;6.140;2022-09-06T12:02:30;11.45;;;2.85;;
21837;SDS011;11081;45.946;6.140;2022-09-06T12:08:22;13.40;;;3.25;;
21837;SDS011;11081;45.946;6.140;2022-09-06T12:10:55;12.82;;;2.70;;
21837;SDS011;11081;45.946;6.140;2022-09-06T12:13:46;15.13;;;3.63;;
21837;SDS011;11081;45.946;6.140;2022-09-06T12:16:19;10.45;;;2.75;;
21837;SDS011;11081;45.946;6.140;2022-09-06T12:18:53;14.23;;;3.47;;
21837;SDS011;11081;45.946;6.140;2022-09-06T12:27:18;13.27;;;2.92;;
21837;SDS011;11081;45.946;6.140;2022-09-06T12:29:49;14.95;;;3.17;;
21837;SDS011;11081;45.946;6.140;2022-09-06T12:32:23;14.70;;;3.00;;
21837;SDS011;11081;45.946;6.140;2022-09-06T12:34:53;12.65;;;3.10;;
21837;SDS011;11081;45.946;6.140;2022-09-06T12:37:49;11.65;;;3.10;;
21837;SDS011;11081;45.946;6.140;2022-09-06T12:40:21;11.73;;;3.25;;
21837;SDS011;11081;45.946;6.140;2022-09-06T12:42:51;16.50;;;3.30;;
21837;SDS011;11081;45.946;6.140;2022-09-06T12:45:21;12.45;;;2.78;;
21837;SDS011;11081;45.946;6.140;2022-09-06T12:48:02;11.18;;;3.13;;
21837;SDS011;11081;45.946;6.140;2022-09-06T12:50:31;10.35;;;2.80;;
21837;SDS011;11081;45.946;6.140;2022-09-06T12:53:01;9.70;;;3.17;;
21837;SDS011;11081;45.946;6.140;2022-09-06T12:55:31;11.32;;;3.20;;
21837;SDS011;11081;45.946;6.140;2022-09-06T12:58:03;12.45;;;3.67;;
21837;SDS011;11081;45.946;6.140;2022-09-06T13:00:33;13.57;;;2.80;;
21837;SDS011;11081;45.946;6.140;2022-09-06T13:03:03;14.32;;;3.13;;
21837;SDS011;11081;45.946;6.140;2022-09-06T13:05:37;13.23;;;3.55;;
21837;SDS011;11081;45.946;6.140;2022-09-06T13:08:11;15.15;;;3.03;;
21837;SDS011;11081;45.946;6.140;2022-09-06T13:10:41;11.95;;;3.00;;
21837;SDS011;11081;45.946;6.140;2022-09-06T13:13:16;9.98;;;2.95;;
21837;SDS011;11081;45.946;6.140;2022-09-06T13:15:47;13.40;;;2.83;;
21837;SDS011;11081;45.946;6.140;2022-09-06T13:18:19;8.68;;;2.70;;
21837;SDS011;11081;45.946;6.140;2022-09-06T13:20:56;14.75;;;2.90;;
21837;SDS011;11081;45.946;6.140;2022-09-06T13:23:27;15.77;;;2.70;;
21837;SDS011;11081;45.946;6.140;2022-09-06T13:25:57;13.55;;;3.20;;
21837;SDS011;11081;45.946;6.140;2022-09-06T13:28:25;12.75;;;3.13;;
21837;SDS011;11081;45.946;6.140;2022-09-06T13:31:02;13.02;;;2.72;;
21837;SDS011;11081;45.946;6.140;2022-09-06T13:33:33;20.13;;;2.53;;
21837;SDS011;11081;45.946;6.140;2022-09-06T13:36:07;13.43;;;3.13;;
21837;SDS011;11081;45.946;6.140;2022-09-06T13:38:47;15.60;;;2.88;;
21837;SDS011;11081;45.946;6.140;2022-09-06T13:41:33;20.05;;;3.25;;
21837;SDS011;11081;45.946;6.140;2022-09-06T13:44:04;21.50;;;3.33;;
21837;SDS011;11081;45.946;6.140;2022-09-06T13:46:34;11.25;;;3.22;;
21837;SDS011;11081;45.946;6.140;2022-09-06T13:49:02;15.57;;;3.33;;
21837;SDS011;11081;45.946;6.140;2022-09-06T13:51:31;20.63;;;3.65;;
21837;SDS011;11081;45.946;6.140;2022-09-06T13:54:05;15.68;;;3.03;;
21837;SDS011;11081;45.946;6.140;2022-09-06T13:56:35;18.92;;;2.97;;
21837;SDS011;11081;45.946;6.140;2022-09-06T13:59:04;12.43;;;2.75;;
21837;SDS011;11081;45.946;6.140;2022-09-06T14:01:35;17.73;;;2.70;;
21837;SDS011;11081;45.946;6.140;2022-09-06T14:04:04;16.08;;;3.15;;
21837;SDS011;11081;45.946;6.140;2022-09-06T14:06:33;19.20;;;3.35;;
21837;SDS011;11081;45.946;6.140;2022-09-06T14:09:02;12.90;;;2.78;;
21837;SDS011;11081;45.946;6.140;2022-09-06T14:11:34;15.98;;;2.95;;
21837;SDS011;11081;45.946;6.140;2022-09-06T14:14:02;20.67;;;3.17;;
21837;SDS011;11081;45.946;6.140;2022-09-06T14:16:30;15.30;;;3.22;;
21837;SDS011;11081;45.946;6.140;2022-09-06T14:18:59;12.15;;;2.85;;
21837;SDS011;11081;45.946;6.140;2022-09-06T14:21:27;19.27;;;3.40;;
21837;SDS011;11081;45.946;6.140;2022-09-06T14:23:56;15.75;;;3.17;;
21837;SDS011;11081;45.946;6.140;2022-09-06T14:26:31;18.02;;;3.25;;
21837;SDS011;11081;45.946;6.140;2022-09-06T14:29:00;12.10;;;2.95;;
21837;SDS011;11081;45.946;6.140;2022-09-06T14:31:28;16.45;;;2.90;;
21837;SDS011;11081;45.946;6.140;2022-09-06T14:33:58;22.80;;;3.40;;
21837;SDS011;11081;45.946;6.140;2022-09-06T14:36:28;15.23;;;3.20;;
21837;SDS011;11081;45.946;6.140;2022-09-06T14:38:57;15.77;;;3.45;;
21837;SDS011;11081;45.946;6.140;2022-09-06T14:41:26;17.02;;;2.88;;
21837;SDS011;11081;45.946;6.140;2022-09-06T14:43:56;13.07;;;3.13;;
21837;SDS011;11081;45.946;6.140;2022-09-06T14:46:25;20.95;;;3.03;;
21837;SDS011;11081;45.946;6.140;2022-09-06T14:48:55;16.77;;;3.38;;
21837;SDS011;11081;45.946;6.140;2022-09-06T14:51:24;18.65;;;3.03;;
21837;SDS011;11081;45.946;6.140;2022-09-06T14:53:54;11.38;;;2.88;;
21837;SDS011;11081;45.946;6.140;2022-09-06T14:56:23;20.45;;;3.60;;
21837;SDS011;11081;45.946;6.140;2022-09-06T14:58:53;12.10;;;3.33;;
21837;SDS011;11081;45.946;6.140;2022-09-06T15:01:25;15.05;;;2.65;;
21837;SDS011;11081;45.946;6.140;2022-09-06T15:04:01;17.75;;;3.75;;
21837;SDS011;11081;45.946;6.140;2022-09-06T15:06:31;14.07;;;3.10;;
21837;SDS011;11081;45.946;6.140;2022-09-06T15:09:02;18.92;;;3.50;;
21837;SDS011;11081;45.946;6.140;2022-09-06T15:11:31;14.02;;;3.60;;
21837;SDS011;11081;45.946;6.140;2022-09-06T15:14:01;13.27;;;3.00;;
21837;SDS011;11081;45.946;6.140;2022-09-06T15:16:33;14.25;;;2.38;;
21837;SDS011;11081;45.946;6.140;2022-09-06T15:19:01;18.60;;;3.88;;
21837;SDS011;11081;45.946;6.140;2022-09-06T15:21:30;21.02;;;2.92;;
21837;SDS011;11081;45.946;6.140;2022-09-06T15:23:59;13.65;;;3.03;;
21837;SDS011;11081;45.946;6.140;2022-09-06T15:26:28;14.55;;;2.90;;
21837;SDS011;11081;45.946;6.140;2022-09-06T15:28:56;11.43;;;2.65;;
21837;SDS011;11081;45.946;6.140;2022-09-06T15:31:24;14.40;;;3.13;;
21837;SDS011;11081;45.946;6.140;2022-09-06T15:33:54;12.48;;;3.25;;